気象予報士の航空気象 北海道が真っ先に猛暑を記録

*All archives   *Admin

スポンサーサイト

上記の広告は1ヶ月以上更新のないブログに表示されています。
新しい記事を書く事で広告が消せます。
--:--  |  スポンサー広告  |  EDIT  |  Top↑

2010.06.26 (Sat)

北海道が真っ先に猛暑を記録

RJCC 260500Z 03010KT CAVOK 31/17 Q1010 RMK A2984


北海道で今年初の猛暑日を記録したようです。


夜のNHKのニュースでそういってました。


千歳のMETARを見てみると、お昼過ぎに31℃を記録。


熱い。


冷夏といわれていたような。


まぁ、いっか。


 
ブログランキングに参加しています。
にほんブログ村 環境ブログ 天気・気象学へ
にほんブログ村
応援クリックをおねがします。


以下、アフィリエイトサイトです。




スポンサーサイト
23:09  |  気象・天気  |  TB(0)  |  CM(0)  |  EDIT  |  Top↑

コメントを投稿する


 管理者だけに表示  (非公開コメント投稿可能)

▲PageTop

この記事のトラックバックURL

→http://weathereucalyptus.blog115.fc2.com/tb.php/526-a55992a4
この記事にトラックバックする(FC2ブログユーザー)

この記事へのトラックバック

▲PageTop

 | BLOGTOP | 
上記広告は1ヶ月以上更新のないブログに表示されています。新しい記事を書くことで広告を消せます。